sensor_id;sensor_type;location;lat;lon;timestamp;temperature;humidity
64833;HTU21D;51290;45.060;38.948;2023-02-28T00:00:34;13.70;39.99
64833;HTU21D;51290;45.060;38.948;2023-02-28T00:03:00;13.69;40.00
64833;HTU21D;51290;45.060;38.948;2023-02-28T00:05:27;13.68;40.02
64833;HTU21D;51290;45.060;38.948;2023-02-28T00:07:54;13.66;40.04
64833;HTU21D;51290;45.060;38.948;2023-02-28T00:10:23;13.65;40.08
64833;HTU21D;51290;45.060;38.948;2023-02-28T00:12:50;13.65;40.10
64833;HTU21D;51290;45.060;38.948;2023-02-28T00:15:17;13.64;40.13
64833;HTU21D;51290;45.060;38.948;2023-02-28T00:17:43;13.64;40.17
64833;HTU21D;51290;45.060;38.948;2023-02-28T00:20:11;13.62;40.18
64833;HTU21D;51290;45.060;38.948;2023-02-28T00:22:49;13.62;40.21
64833;HTU21D;51290;45.060;38.948;2023-02-28T00:25:19;13.60;40.23
64833;HTU21D;51290;45.060;38.948;2023-02-28T00:27:45;13.61;40.24
64833;HTU21D;51290;45.060;38.948;2023-02-28T00:30:17;13.58;40.26
64833;HTU21D;51290;45.060;38.948;2023-02-28T00:32:43;13.55;40.30
64833;HTU21D;51290;45.060;38.948;2023-02-28T00:35:10;13.53;40.33
64833;HTU21D;51290;45.060;38.948;2023-02-28T00:37:37;13.50;40.36
64833;HTU21D;51290;45.060;38.948;2023-02-28T00:40:06;13.47;40.43
64833;HTU21D;51290;45.060;38.948;2023-02-28T00:42:33;13.44;40.47
64833;HTU21D;51290;45.060;38.948;2023-02-28T00:44:59;13.41;40.49
64833;HTU21D;51290;45.060;38.948;2023-02-28T00:47:25;13.39;40.55
64833;HTU21D;51290;45.060;38.948;2023-02-28T00:49:51;13.36;40.59
64833;HTU21D;51290;45.060;38.948;2023-02-28T00:52:17;13.34;40.64
64833;HTU21D;51290;45.060;38.948;2023-02-28T00:54:43;13.33;40.70
64833;HTU21D;51290;45.060;38.948;2023-02-28T00:57:09;13.32;40.76
64833;HTU21D;51290;45.060;38.948;2023-02-28T00:59:35;13.32;40.78
64833;HTU21D;51290;45.060;38.948;2023-02-28T01:02:01;13.32;40.75
64833;HTU21D;51290;45.060;38.948;2023-02-28T01:26:32;12.72;41.22
64833;HTU21D;51290;45.060;38.948;2023-02-28T01:28:58;12.65;41.30
64833;HTU21D;51290;45.060;38.948;2023-02-28T01:31:25;12.59;41.38
64833;HTU21D;51290;45.060;38.948;2023-02-28T01:33:51;12.58;41.45
64833;HTU21D;51290;45.060;38.948;2023-02-28T01:36:20;12.52;41.51
64833;HTU21D;51290;45.060;38.948;2023-02-28T01:38:46;12.50;41.58
64833;HTU21D;51290;45.060;38.948;2023-02-28T01:41:19;12.50;41.63
64833;HTU21D;51290;45.060;38.948;2023-02-28T01:46:12;12.48;41.69
64833;HTU21D;51290;45.060;38.948;2023-02-28T01:48:54;12.47;41.73
64833;HTU21D;51290;45.060;38.948;2023-02-28T01:51:30;12.49;41.81
64833;HTU21D;51290;45.060;38.948;2023-02-28T01:54:02;12.50;41.87
64833;HTU21D;51290;45.060;38.948;2023-02-28T01:56:32;12.55;41.94
64833;HTU21D;51290;45.060;38.948;2023-02-28T01:58:59;12.60;41.99
64833;HTU21D;51290;45.060;38.948;2023-02-28T02:01:27;12.66;42.00
64833;HTU21D;51290;45.060;38.948;2023-02-28T02:03:57;12.74;41.97
64833;HTU21D;51290;45.060;38.948;2023-02-28T02:06:30;12.80;41.94
64833;HTU21D;51290;45.060;38.948;2023-02-28T02:08:59;12.86;41.91
64833;HTU21D;51290;45.060;38.948;2023-02-28T02:11:26;12.89;41.87
64833;HTU21D;51290;45.060;38.948;2023-02-28T02:14:31;12.92;41.86
64833;HTU21D;51290;45.060;38.948;2023-02-28T02:17:30;12.94;41.82
64833;HTU21D;51290;45.060;38.948;2023-02-28T02:20:16;12.95;41.81
64833;HTU21D;51290;45.060;38.948;2023-02-28T02:22:59;12.96;41.83
64833;HTU21D;51290;45.060;38.948;2023-02-28T02:25:38;12.97;41.86
64833;HTU21D;51290;45.060;38.948;2023-02-28T02:28:23;12.99;41.84
64833;HTU21D;51290;45.060;38.948;2023-02-28T02:36:27;13.04;41.81
64833;HTU21D;51290;45.060;38.948;2023-02-28T02:42:01;13.04;41.74
64833;HTU21D;51290;45.060;38.948;2023-02-28T02:47:46;12.97;41.74
64833;HTU21D;51290;45.060;38.948;2023-02-28T02:50:24;12.91;41.75
64833;HTU21D;51290;45.060;38.948;2023-02-28T02:52:55;12.85;41.78
64833;HTU21D;51290;45.060;38.948;2023-02-28T02:55:23;12.77;41.82
64833;HTU21D;51290;45.060;38.948;2023-02-28T02:57:53;12.70;41.87
64833;HTU21D;51290;45.060;38.948;2023-02-28T03:00:26;12.61;41.93
64833;HTU21D;51290;45.060;38.948;2023-02-28T03:02:55;12.55;42.01
64833;HTU21D;51290;45.060;38.948;2023-02-28T03:05:44;12.49;42.06
64833;HTU21D;51290;45.060;38.948;2023-02-28T03:08:11;12.42;42.07
64833;HTU21D;51290;45.060;38.948;2023-02-28T03:10:48;12.34;42.13
64833;HTU21D;51290;45.060;38.948;2023-02-28T03:27:03;12.14;42.44
64833;HTU21D;51290;45.060;38.948;2023-02-28T03:29:39;12.07;42.48
64833;HTU21D;51290;45.060;38.948;2023-02-28T03:32:13;12.05;42.52
64833;HTU21D;51290;45.060;38.948;2023-02-28T03:35:08;12.02;42.58
64833;HTU21D;51290;45.060;38.948;2023-02-28T03:37:37;12.01;42.56
64833;HTU21D;51290;45.060;38.948;2023-02-28T03:40:31;11.97;42.57
64833;HTU21D;51290;45.060;38.948;2023-02-28T03:42:59;11.92;42.61
64833;HTU21D;51290;45.060;38.948;2023-02-28T03:45:33;11.90;42.67
64833;HTU21D;51290;45.060;38.948;2023-02-28T03:48:08;11.89;42.70
64833;HTU21D;51290;45.060;38.948;2023-02-28T03:50:40;11.86;42.71
64833;HTU21D;51290;45.060;38.948;2023-02-28T03:55:50;11.82;42.77
64833;HTU21D;51290;45.060;38.948;2023-02-28T03:58:29;11.82;42.81
64833;HTU21D;51290;45.060;38.948;2023-02-28T04:01:03;11.83;42.84
64833;HTU21D;51290;45.060;38.948;2023-02-28T04:03:35;11.85;42.87
64833;HTU21D;51290;45.060;38.948;2023-02-28T04:06:02;11.88;42.89
64833;HTU21D;51290;45.060;38.948;2023-02-28T04:08:29;11.91;42.89
64833;HTU21D;51290;45.060;38.948;2023-02-28T04:13:47;12.02;42.84
64833;HTU21D;51290;45.060;38.948;2023-02-28T04:16:14;12.07;42.83
64833;HTU21D;51290;45.060;38.948;2023-02-28T04:18:40;12.12;42.79
64833;HTU21D;51290;45.060;38.948;2023-02-28T04:21:07;12.16;42.78
64833;HTU21D;51290;45.060;38.948;2023-02-28T04:23:33;12.18;42.81
64833;HTU21D;51290;45.060;38.948;2023-02-28T04:25:59;12.23;42.78
64833;HTU21D;51290;45.060;38.948;2023-02-28T04:28:26;12.30;42.80
64833;HTU21D;51290;45.060;38.948;2023-02-28T04:31:01;12.37;42.77
64833;HTU21D;51290;45.060;38.948;2023-02-28T04:33:28;12.45;42.76
64833;HTU21D;51290;45.060;38.948;2023-02-28T04:36:07;12.55;42.74
64833;HTU21D;51290;45.060;38.948;2023-02-28T04:38:36;12.64;42.68
64833;HTU21D;51290;45.060;38.948;2023-02-28T04:41:02;12.74;42.63
64833;HTU21D;51290;45.060;38.948;2023-02-28T04:43:29;12.81;42.57
64833;HTU21D;51290;45.060;38.948;2023-02-28T04:45:57;12.90;42.53
64833;HTU21D;51290;45.060;38.948;2023-02-28T04:48:24;12.96;42.48
64833;HTU21D;51290;45.060;38.948;2023-02-28T04:50:51;13.04;42.45
64833;HTU21D;51290;45.060;38.948;2023-02-28T04:53:18;13.12;42.39
64833;HTU21D;51290;45.060;38.948;2023-02-28T04:55:44;13.21;42.30
64833;HTU21D;51290;45.060;38.948;2023-02-28T04:58:10;13.30;42.26
64833;HTU21D;51290;45.060;38.948;2023-02-28T05:00:36;13.37;42.14
64833;HTU21D;51290;45.060;38.948;2023-02-28T05:03:02;13.46;42.07
64833;HTU21D;51290;45.060;38.948;2023-02-28T05:05:28;13.53;42.02
64833;HTU21D;51290;45.060;38.948;2023-02-28T05:07:54;13.59;41.87
64833;HTU21D;51290;45.060;38.948;2023-02-28T05:10:22;13.65;41.84
64833;HTU21D;51290;45.060;38.948;2023-02-28T05:12:48;13.73;41.84
64833;HTU21D;51290;45.060;38.948;2023-02-28T05:15:15;13.79;41.85
64833;HTU21D;51290;45.060;38.948;2023-02-28T05:17:41;13.84;41.77
64833;HTU21D;51290;45.060;38.948;2023-02-28T05:20:08;13.92;41.74
64833;HTU21D;51290;45.060;38.948;2023-02-28T05:22:37;14.00;41.71
64833;HTU21D;51290;45.060;38.948;2023-02-28T05:25:04;14.09;41.65
64833;HTU21D;51290;45.060;38.948;2023-02-28T05:27:31;14.18;41.65
64833;HTU21D;51290;45.060;38.948;2023-02-28T05:29:57;14.27;41.65
64833;HTU21D;51290;45.060;38.948;2023-02-28T05:32:23;14.37;41.62
64833;HTU21D;51290;45.060;38.948;2023-02-28T05:34:50;14.48;41.58
64833;HTU21D;51290;45.060;38.948;2023-02-28T05:37:17;14.58;41.52
64833;HTU21D;51290;45.060;38.948;2023-02-28T05:39:43;14.69;41.45
64833;HTU21D;51290;45.060;38.948;2023-02-28T05:42:09;14.78;41.36
64833;HTU21D;51290;45.060;38.948;2023-02-28T05:44:35;14.89;41.18
64833;HTU21D;51290;45.060;38.948;2023-02-28T05:47:02;14.98;41.02
64833;HTU21D;51290;45.060;38.948;2023-02-28T05:49:28;15.08;40.93
64833;HTU21D;51290;45.060;38.948;2023-02-28T05:51:54;15.15;40.85
64833;HTU21D;51290;45.060;38.948;2023-02-28T05:54:20;15.22;40.82
64833;HTU21D;51290;45.060;38.948;2023-02-28T05:56:46;15.26;40.79
64833;HTU21D;51290;45.060;38.948;2023-02-28T05:59:13;15.27;40.73
64833;HTU21D;51290;45.060;38.948;2023-02-28T06:01:43;15.29;40.67
64833;HTU21D;51290;45.060;38.948;2023-02-28T06:04:18;15.32;40.71
64833;HTU21D;51290;45.060;38.948;2023-02-28T06:06:45;15.36;40.58
64833;HTU21D;51290;45.060;38.948;2023-02-28T06:09:11;15.36;40.50
64833;HTU21D;51290;45.060;38.948;2023-02-28T06:11:38;15.36;40.54
64833;HTU21D;51290;45.060;38.948;2023-02-28T06:14:04;15.30;40.51
64833;HTU21D;51290;45.060;38.948;2023-02-28T06:16:32;15.23;40.55
64833;HTU21D;51290;45.060;38.948;2023-02-28T06:18:59;15.13;40.62
64833;HTU21D;51290;45.060;38.948;2023-02-28T06:21:26;15.01;40.73
64833;HTU21D;51290;45.060;38.948;2023-02-28T06:23:53;14.88;40.86
64833;HTU21D;51290;45.060;38.948;2023-02-28T06:26:20;14.73;41.07
64833;HTU21D;51290;45.060;38.948;2023-02-28T06:28:46;14.63;41.29
64833;HTU21D;51290;45.060;38.948;2023-02-28T06:31:14;14.50;41.53
64833;HTU21D;51290;45.060;38.948;2023-02-28T06:33:41;14.39;41.71
64833;HTU21D;51290;45.060;38.948;2023-02-28T06:36:09;14.32;42.03
64833;HTU21D;51290;45.060;38.948;2023-02-28T06:38:36;14.26;42.13
64833;HTU21D;51290;45.060;38.948;2023-02-28T06:41:03;14.22;42.26
64833;HTU21D;51290;45.060;38.948;2023-02-28T06:43:32;14.17;42.48
64833;HTU21D;51290;45.060;38.948;2023-02-28T06:46:00;14.11;42.55
64833;HTU21D;51290;45.060;38.948;2023-02-28T06:48:27;14.09;42.68
64833;HTU21D;51290;45.060;38.948;2023-02-28T06:51:07;14.06;42.73
64833;HTU21D;51290;45.060;38.948;2023-02-28T06:53:34;14.04;42.81
64833;HTU21D;51290;45.060;38.948;2023-02-28T06:56:08;14.06;42.91
64833;HTU21D;51290;45.060;38.948;2023-02-28T06:58:34;14.10;42.92
64833;HTU21D;51290;45.060;38.948;2023-02-28T07:01:01;14.17;42.94
64833;HTU21D;51290;45.060;38.948;2023-02-28T07:03:27;14.23;43.02
64833;HTU21D;51290;45.060;38.948;2023-02-28T07:05:53;14.26;43.05
64833;HTU21D;51290;45.060;38.948;2023-02-28T07:08:28;14.29;43.12
64833;HTU21D;51290;45.060;38.948;2023-02-28T07:10:55;14.38;43.16
64833;HTU21D;51290;45.060;38.948;2023-02-28T07:13:22;14.48;43.13
64833;HTU21D;51290;45.060;38.948;2023-02-28T07:15:56;14.59;43.19
64833;HTU21D;51290;45.060;38.948;2023-02-28T07:18:23;14.69;43.13
64833;HTU21D;51290;45.060;38.948;2023-02-28T07:20:49;14.77;43.22
64833;HTU21D;51290;45.060;38.948;2023-02-28T07:23:16;14.83;43.28
64833;HTU21D;51290;45.060;38.948;2023-02-28T07:25:42;14.86;43.29
64833;HTU21D;51290;45.060;38.948;2023-02-28T07:28:08;14.91;43.29
64833;HTU21D;51290;45.060;38.948;2023-02-28T07:30:34;14.94;43.32
64833;HTU21D;51290;45.060;38.948;2023-02-28T07:32:59;15.01;43.36
64833;HTU21D;51290;45.060;38.948;2023-02-28T07:35:27;15.12;43.39
64833;HTU21D;51290;45.060;38.948;2023-02-28T07:37:53;15.21;43.30
64833;HTU21D;51290;45.060;38.948;2023-02-28T07:40:19;15.27;43.28
64833;HTU21D;51290;45.060;38.948;2023-02-28T07:42:45;15.34;43.32
64833;HTU21D;51290;45.060;38.948;2023-02-28T07:45:16;15.38;43.36
64833;HTU21D;51290;45.060;38.948;2023-02-28T07:47:42;15.42;43.51
64833;HTU21D;51290;45.060;38.948;2023-02-28T07:50:11;15.40;43.62
64833;HTU21D;51290;45.060;38.948;2023-02-28T07:52:38;15.41;43.64
64833;HTU21D;51290;45.060;38.948;2023-02-28T07:55:05;15.44;43.72
64833;HTU21D;51290;45.060;38.948;2023-02-28T07:57:32;15.52;43.85
64833;HTU21D;51290;45.060;38.948;2023-02-28T07:59:58;15.57;43.84
64833;HTU21D;51290;45.060;38.948;2023-02-28T08:02:24;15.65;44.01
64833;HTU21D;51290;45.060;38.948;2023-02-28T08:04:50;15.67;44.19
64833;HTU21D;51290;45.060;38.948;2023-02-28T08:07:18;15.62;44.38
64833;HTU21D;51290;45.060;38.948;2023-02-28T08:09:44;15.57;44.65
64833;HTU21D;51290;45.060;38.948;2023-02-28T08:12:11;15.49;44.66
64833;HTU21D;51290;45.060;38.948;2023-02-28T08:14:37;15.44;45.00
64833;HTU21D;51290;45.060;38.948;2023-02-28T08:17:04;15.44;44.98
64833;HTU21D;51290;45.060;38.948;2023-02-28T08:19:30;15.48;44.95
64833;HTU21D;51290;45.060;38.948;2023-02-28T08:21:56;15.57;44.96
64833;HTU21D;51290;45.060;38.948;2023-02-28T08:24:22;15.71;44.96
64833;HTU21D;51290;45.060;38.948;2023-02-28T08:26:49;15.86;44.99
64833;HTU21D;51290;45.060;38.948;2023-02-28T08:29:16;15.97;44.81
64833;HTU21D;51290;45.060;38.948;2023-02-28T08:31:42;16.06;44.72
64833;HTU21D;51290;45.060;38.948;2023-02-28T08:34:13;16.11;45.00
64833;HTU21D;51290;45.060;38.948;2023-02-28T08:36:40;16.01;44.99
64833;HTU21D;51290;45.060;38.948;2023-02-28T08:39:06;15.82;45.36
64833;HTU21D;51290;45.060;38.948;2023-02-28T08:41:33;15.69;45.49
64833;HTU21D;51290;45.060;38.948;2023-02-28T08:43:59;15.67;45.67
64833;HTU21D;51290;45.060;38.948;2023-02-28T08:46:26;15.70;45.70
64833;HTU21D;51290;45.060;38.948;2023-02-28T08:48:53;15.78;45.72
64833;HTU21D;51290;45.060;38.948;2023-02-28T08:51:20;15.80;45.83
64833;HTU21D;51290;45.060;38.948;2023-02-28T08:53:57;15.76;45.81
64833;HTU21D;51290;45.060;38.948;2023-02-28T08:56:23;15.71;45.93
64833;HTU21D;51290;45.060;38.948;2023-02-28T08:58:55;15.65;46.10
64833;HTU21D;51290;45.060;38.948;2023-02-28T09:01:27;15.56;46.18
64833;HTU21D;51290;45.060;38.948;2023-02-28T09:03:53;15.47;46.23
64833;HTU21D;51290;45.060;38.948;2023-02-28T09:06:21;15.40;46.70
64833;HTU21D;51290;45.060;38.948;2023-02-28T09:08:48;15.34;46.70
64833;HTU21D;51290;45.060;38.948;2023-02-28T09:11:15;15.31;46.71
64833;HTU21D;51290;45.060;38.948;2023-02-28T09:13:41;15.34;46.76
64833;HTU21D;51290;45.060;38.948;2023-02-28T09:16:10;15.46;46.80
64833;HTU21D;51290;45.060;38.948;2023-02-28T09:18:37;15.56;46.85
64833;HTU21D;51290;45.060;38.948;2023-02-28T09:21:07;15.57;46.92
64833;HTU21D;51290;45.060;38.948;2023-02-28T09:23:34;15.52;46.91
64833;HTU21D;51290;45.060;38.948;2023-02-28T09:26:00;15.47;47.05
64833;HTU21D;51290;45.060;38.948;2023-02-28T09:28:26;15.49;47.22
64833;HTU21D;51290;45.060;38.948;2023-02-28T09:30:54;15.54;47.23
64833;HTU21D;51290;45.060;38.948;2023-02-28T09:33:21;15.57;47.12
64833;HTU21D;51290;45.060;38.948;2023-02-28T09:35:50;15.58;47.10
64833;HTU21D;51290;45.060;38.948;2023-02-28T09:38:17;15.56;47.17
64833;HTU21D;51290;45.060;38.948;2023-02-28T09:40:58;15.57;47.31
64833;HTU21D;51290;45.060;38.948;2023-02-28T09:43:29;15.62;47.29
64833;HTU21D;51290;45.060;38.948;2023-02-28T09:48:51;15.70;47.20
64833;HTU21D;51290;45.060;38.948;2023-02-28T09:53:50;15.74;47.35
64833;HTU21D;51290;45.060;38.948;2023-02-28T09:56:21;15.65;47.31
64833;HTU21D;51290;45.060;38.948;2023-02-28T09:59:00;15.54;47.44
64833;HTU21D;51290;45.060;38.948;2023-02-28T10:07:35;15.39;47.79
64833;HTU21D;51290;45.060;38.948;2023-02-28T10:09:56;15.40;47.88
64833;HTU21D;51290;45.060;38.948;2023-02-28T10:12:24;15.44;48.02
64833;HTU21D;51290;45.060;38.948;2023-02-28T10:14:53;15.43;47.92
64833;HTU21D;51290;45.060;38.948;2023-02-28T10:17:23;15.39;47.92
64833;HTU21D;51290;45.060;38.948;2023-02-28T10:20:00;15.29;48.28
64833;HTU21D;51290;45.060;38.948;2023-02-28T10:24:54;15.01;48.58
64833;HTU21D;51290;45.060;38.948;2023-02-28T10:27:25;14.91;48.88
64833;HTU21D;51290;45.060;38.948;2023-02-28T10:29:56;14.83;49.39
64833;HTU21D;51290;45.060;38.948;2023-02-28T10:32:35;14.83;49.37
64833;HTU21D;51290;45.060;38.948;2023-02-28T10:35:23;14.86;49.35
64833;HTU21D;51290;45.060;38.948;2023-02-28T10:37:54;14.85;49.39
64833;HTU21D;51290;45.060;38.948;2023-02-28T10:43:03;14.86;49.53
64833;HTU21D;51290;45.060;38.948;2023-02-28T10:45:36;14.91;49.48
64833;HTU21D;51290;45.060;38.948;2023-02-28T10:50:43;15.00;49.50
64833;HTU21D;51290;45.060;38.948;2023-02-28T10:55:36;15.06;49.61
64833;HTU21D;51290;45.060;38.948;2023-02-28T10:58:02;15.04;49.56
64833;HTU21D;51290;45.060;38.948;2023-02-28T11:00:34;15.03;49.72
64833;HTU21D;51290;45.060;38.948;2023-02-28T11:03:01;14.97;49.76
64833;HTU21D;51290;45.060;38.948;2023-02-28T11:05:32;14.91;50.03
64833;HTU21D;51290;45.060;38.948;2023-02-28T11:08:12;14.91;50.05
64833;HTU21D;51290;45.060;38.948;2023-02-28T11:10:39;14.94;50.12
64833;HTU21D;51290;45.060;38.948;2023-02-28T11:13:17;15.00;50.13
64833;HTU21D;51290;45.060;38.948;2023-02-28T11:15:51;15.01;50.43
64833;HTU21D;51290;45.060;38.948;2023-02-28T11:18:30;14.97;50.29
64833;HTU21D;51290;45.060;38.948;2023-02-28T11:20:59;14.87;50.39
64833;HTU21D;51290;45.060;38.948;2023-02-28T11:23:29;14.74;50.43
64833;HTU21D;51290;45.060;38.948;2023-02-28T11:25:59;14.60;50.57
64833;HTU21D;51290;45.060;38.948;2023-02-28T11:28:31;14.53;50.94
64833;HTU21D;51290;45.060;38.948;2023-02-28T11:36:25;14.54;51.33
64833;HTU21D;51290;45.060;38.948;2023-02-28T11:38:53;14.63;51.28
64833;HTU21D;51290;45.060;38.948;2023-02-28T11:41:38;14.72;51.22
64833;HTU21D;51290;45.060;38.948;2023-02-28T11:46:48;14.85;50.98
64833;HTU21D;51290;45.060;38.948;2023-02-28T11:49:22;14.84;50.99
64833;HTU21D;51290;45.060;38.948;2023-02-28T11:51:59;14.86;51.01
64833;HTU21D;51290;45.060;38.948;2023-02-28T11:54:35;14.84;50.99
64833;HTU21D;51290;45.060;38.948;2023-02-28T12:00:08;14.75;51.01
64833;HTU21D;51290;45.060;38.948;2023-02-28T12:03:01;14.65;51.17
64833;HTU21D;51290;45.060;38.948;2023-02-28T12:05:46;14.54;51.24
64833;HTU21D;51290;45.060;38.948;2023-02-28T12:08:44;14.43;51.88
64833;HTU21D;51290;45.060;38.948;2023-02-28T12:11:40;14.32;51.78
64833;HTU21D;51290;45.060;38.948;2023-02-28T12:14:36;14.23;51.77
64833;HTU21D;51290;45.060;38.948;2023-02-28T12:22:32;14.10;52.06
64833;HTU21D;51290;45.060;38.948;2023-02-28T12:27:36;13.94;52.27
64833;HTU21D;51290;45.060;38.948;2023-02-28T12:30:27;13.89;52.91
64833;HTU21D;51290;45.060;38.948;2023-02-28T12:33:05;13.80;53.10
64833;HTU21D;51290;45.060;38.948;2023-02-28T12:35:56;13.75;52.99
64833;HTU21D;51290;45.060;38.948;2023-02-28T12:38:38;13.76;53.02
64833;HTU21D;51290;45.060;38.948;2023-02-28T12:41:18;13.80;53.02
64833;HTU21D;51290;45.060;38.948;2023-02-28T12:43:57;13.86;53.20
64833;HTU21D;51290;45.060;38.948;2023-02-28T12:46:38;13.88;53.57
64833;HTU21D;51290;45.060;38.948;2023-02-28T12:49:19;13.84;53.57
64833;HTU21D;51290;45.060;38.948;2023-02-28T12:51:47;13.80;53.71
64833;HTU21D;51290;45.060;38.948;2023-02-28T13:02:27;13.85;53.46
64833;HTU21D;51290;45.060;38.948;2023-02-28T13:05:50;13.84;53.36
64833;HTU21D;51290;45.060;38.948;2023-02-28T13:08:57;13.83;53.26
64833;HTU21D;51290;45.060;38.948;2023-02-28T13:11:43;13.84;53.24
64833;HTU21D;51290;45.060;38.948;2023-02-28T13:14:21;13.88;53.23
64833;HTU21D;51290;45.060;38.948;2023-02-28T13:17:12;13.90;53.19
64833;HTU21D;51290;45.060;38.948;2023-02-28T13:22:40;13.95;53.07
64833;HTU21D;51290;45.060;38.948;2023-02-28T13:28:09;13.94;52.96
64833;HTU21D;51290;45.060;38.948;2023-02-28T13:33:27;13.90;52.91
64833;HTU21D;51290;45.060;38.948;2023-02-28T13:38:48;13.80;52.86
64833;HTU21D;51290;45.060;38.948;2023-02-28T13:44:17;13.66;52.92
64833;HTU21D;51290;45.060;38.948;2023-02-28T13:49:26;13.44;53.13
64833;HTU21D;51290;45.060;38.948;2023-02-28T14:11:46;12.18;54.51
64833;HTU21D;51290;45.060;38.948;2023-02-28T14:17:05;11.72;55.26
64833;HTU21D;51290;45.060;38.948;2023-02-28T14:19:32;11.54;55.36
64833;HTU21D;51290;45.060;38.948;2023-02-28T14:25:09;11.19;55.48
64833;HTU21D;51290;45.060;38.948;2023-02-28T14:37:53;10.67;55.59
64833;HTU21D;51290;45.060;38.948;2023-02-28T14:40:30;10.53;55.81
64833;HTU21D;51290;45.060;38.948;2023-02-28T14:42:58;10.41;55.81
64833;HTU21D;51290;45.060;38.948;2023-02-28T14:45:29;10.31;55.91
64833;HTU21D;51290;45.060;38.948;2023-02-28T14:47:56;10.21;55.98
64833;HTU21D;51290;45.060;38.948;2023-02-28T14:50:33;10.09;56.02
64833;HTU21D;51290;45.060;38.948;2023-02-28T14:53:01;10.00;56.07
64833;HTU21D;51290;45.060;38.948;2023-02-28T14:55:33;9.89;56.13
64833;HTU21D;51290;45.060;38.948;2023-02-28T14:58:02;9.78;56.15
64833;HTU21D;51290;45.060;38.948;2023-02-28T15:00:35;9.68;56.21
64833;HTU21D;51290;45.060;38.948;2023-02-28T15:03:35;9.56;56.22
64833;HTU21D;51290;45.060;38.948;2023-02-28T15:06:13;9.47;56.31
64833;HTU21D;51290;45.060;38.948;2023-02-28T15:08:39;9.38;56.38
64833;HTU21D;51290;45.060;38.948;2023-02-28T15:11:08;9.30;56.70
64833;HTU21D;51290;45.060;38.948;2023-02-28T15:13:46;9.22;56.74
64833;HTU21D;51290;45.060;38.948;2023-02-28T15:16:20;9.14;56.81
64833;HTU21D;51290;45.060;38.948;2023-02-28T15:19:01;9.06;56.81
64833;HTU21D;51290;45.060;38.948;2023-02-28T15:21:31;8.95;56.90
64833;HTU21D;51290;45.060;38.948;2023-02-28T15:26:33;8.75;57.17
64833;HTU21D;51290;45.060;38.948;2023-02-28T15:29:04;8.70;57.26
64833;HTU21D;51290;45.060;38.948;2023-02-28T15:31:39;8.65;57.32
64833;HTU21D;51290;45.060;38.948;2023-02-28T15:34:12;8.64;57.36
64833;HTU21D;51290;45.060;38.948;2023-02-28T15:36:41;8.63;57.37
64833;HTU21D;51290;45.060;38.948;2023-02-28T15:39:26;8.62;57.41
64833;HTU21D;51290;45.060;38.948;2023-02-28T15:42:16;8.60;57.32
64833;HTU21D;51290;45.060;38.948;2023-02-28T15:44:43;8.59;57.41
64833;HTU21D;51290;45.060;38.948;2023-02-28T15:47:29;8.57;57.45
64833;HTU21D;51290;45.060;38.948;2023-02-28T15:50:02;8.53;57.62
64833;HTU21D;51290;45.060;38.948;2023-02-28T15:55:11;8.44;57.86
64833;HTU21D;51290;45.060;38.948;2023-02-28T15:57:42;8.35;58.08
64833;HTU21D;51290;45.060;38.948;2023-02-28T16:00:12;8.27;58.55
64833;HTU21D;51290;45.060;38.948;2023-02-28T16:02:41;8.17;58.48
64833;HTU21D;51290;45.060;38.948;2023-02-28T16:07:42;7.97;59.28
64833;HTU21D;51290;45.060;38.948;2023-02-28T16:10:11;7.88;59.09
64833;HTU21D;51290;45.060;38.948;2023-02-28T16:12:38;7.84;58.99
64833;HTU21D;51290;45.060;38.948;2023-02-28T16:15:29;7.78;58.94
64833;HTU21D;51290;45.060;38.948;2023-02-28T16:17:57;7.74;58.85
64833;HTU21D;51290;45.060;38.948;2023-02-28T16:20:26;7.70;58.99
64833;HTU21D;51290;45.060;38.948;2023-02-28T16:22:53;7.58;59.41
64833;HTU21D;51290;45.060;38.948;2023-02-28T16:25:23;7.44;59.24
64833;HTU21D;51290;45.060;38.948;2023-02-28T16:27:52;7.32;59.67
64833;HTU21D;51290;45.060;38.948;2023-02-28T16:30:27;7.23;59.74
64833;HTU21D;51290;45.060;38.948;2023-02-28T16:32:57;7.14;59.91
64833;HTU21D;51290;45.060;38.948;2023-02-28T16:35:32;7.05;60.06
64833;HTU21D;51290;45.060;38.948;2023-02-28T16:37:58;7.00;60.15
64833;HTU21D;51290;45.060;38.948;2023-02-28T16:40:25;6.93;60.32
64833;HTU21D;51290;45.060;38.948;2023-02-28T16:42:57;6.89;60.27
64833;HTU21D;51290;45.060;38.948;2023-02-28T16:45:26;6.87;60.22
64833;HTU21D;51290;45.060;38.948;2023-02-28T16:47:52;6.87;60.22
64833;HTU21D;51290;45.060;38.948;2023-02-28T16:50:20;6.86;60.17
64833;HTU21D;51290;45.060;38.948;2023-02-28T16:52:47;6.83;60.18
64833;HTU21D;51290;45.060;38.948;2023-02-28T16:55:13;6.81;59.99
64833;HTU21D;51290;45.060;38.948;2023-02-28T16:57:39;6.74;60.01
64833;HTU21D;51290;45.060;38.948;2023-02-28T17:00:07;6.70;60.03
64833;HTU21D;51290;45.060;38.948;2023-02-28T17:02:34;6.68;60.23
64833;HTU21D;51290;45.060;38.948;2023-02-28T17:05:00;6.64;60.20
64833;HTU21D;51290;45.060;38.948;2023-02-28T17:07:26;6.58;60.16
64833;HTU21D;51290;45.060;38.948;2023-02-28T17:09:53;6.54;60.18
64833;HTU21D;51290;45.060;38.948;2023-02-28T17:12:18;6.51;60.28
64833;HTU21D;51290;45.060;38.948;2023-02-28T17:14:45;6.44;60.44
64833;HTU21D;51290;45.060;38.948;2023-02-28T17:17:29;6.39;60.40
64833;HTU21D;51290;45.060;38.948;2023-02-28T17:19:55;6.36;60.37
64833;HTU21D;51290;45.060;38.948;2023-02-28T17:22:21;6.34;60.41
64833;HTU21D;51290;45.060;38.948;2023-02-28T17:24:47;6.30;60.48
64833;HTU21D;51290;45.060;38.948;2023-02-28T17:27:13;6.27;60.55
64833;HTU21D;51290;45.060;38.948;2023-02-28T17:29:39;6.26;60.64
64833;HTU21D;51290;45.060;38.948;2023-02-28T17:32:05;6.22;61.27
64833;HTU21D;51290;45.060;38.948;2023-02-28T17:34:31;6.16;61.62
64833;HTU21D;51290;45.060;38.948;2023-02-28T17:36:57;6.13;61.67
64833;HTU21D;51290;45.060;38.948;2023-02-28T17:39:23;6.09;61.73
64833;HTU21D;51290;45.060;38.948;2023-02-28T17:41:55;6.10;61.67
64833;HTU21D;51290;45.060;38.948;2023-02-28T17:44:23;6.11;61.58
64833;HTU21D;51290;45.060;38.948;2023-02-28T17:46:50;6.13;61.47
64833;HTU21D;51290;45.060;38.948;2023-02-28T17:49:17;6.14;61.47
64833;HTU21D;51290;45.060;38.948;2023-02-28T17:51:44;6.17;61.44
64833;HTU21D;51290;45.060;38.948;2023-02-28T17:54:11;6.17;61.39
64833;HTU21D;51290;45.060;38.948;2023-02-28T17:56:37;6.17;61.37
64833;HTU21D;51290;45.060;38.948;2023-02-28T17:59:03;6.19;61.36
64833;HTU21D;51290;45.060;38.948;2023-02-28T18:01:29;6.22;61.32
64833;HTU21D;51290;45.060;38.948;2023-02-28T18:03:55;6.26;61.27
64833;HTU21D;51290;45.060;38.948;2023-02-28T18:06:28;6.30;61.22
64833;HTU21D;51290;45.060;38.948;2023-02-28T18:08:56;6.35;61.04
64833;HTU21D;51290;45.060;38.948;2023-02-28T18:11:23;6.36;61.05